Time;durP1;ratioP1;P1;durP2;ratioP2;P2;SDS_P1;SDS_P2;PMS_P1;PMS_P2;Temp;Humidity;BMP_temperature;BMP_pressure;BME280_temperature;BME280_humidity;BME280_pressure;Samples;Min_cycle;Max_cycle;Signal;HPM_P1;HPM_P2
2021/06/12 00:01:13;;;;;;;7.35;3.55;;;;;;;14.66;68.65;93903.31;5092244;28;20399;-69
2021/06/12 00:03:39;;;;;;;4.80;3.67;;;;;;;14.68;68.77;93909.13;5091734;28;20020;-69
2021/06/12 00:06:05;;;;;;;5.45;3.90;;;;;;;14.66;68.68;93905.22;5101489;28;20032;-69
2021/06/12 00:08:31;;;;;;;5.93;4.15;;;;;;;14.68;68.58;93911.03;5112150;28;20475;-70
2021/06/12 00:10:57;;;;;;;7.65;4.28;;;;;;;14.67;68.63;93920.19;5110836;28;20048;-69
2021/06/12 00:13:23;;;;;;;4.78;3.67;;;;;;;14.65;68.39;93920.50;5112445;28;20547;-69
2021/06/12 00:15:49;;;;;;;6.80;4.20;;;;;;;14.63;68.08;93909.34;5110790;28;20015;-69
2021/06/12 00:18:14;;;;;;;6.07;3.83;;;;;;;14.65;67.88;93904.41;5111982;28;20497;-69
2021/06/12 00:20:40;;;;;;;5.20;3.60;;;;;;;14.61;68.01;93904.34;5111882;28;20019;-69
2021/06/12 00:23:07;;;;;;;6.53;4.20;;;;;;;14.56;68.06;93907.22;5110882;28;20389;-69
2021/06/12 00:25:33;;;;;;;7.68;4.10;;;;;;;14.56;68.17;93895.72;5110792;28;20038;-69
2021/06/12 00:28:02;;;;;;;9.90;4.07;;;;;;;14.49;67.96;93890.09;5110350;28;20104;-69
2021/06/12 00:30:28;;;;;;;5.75;4.18;;;;;;;14.49;67.90;93895.47;5110798;28;20024;-69
2021/06/12 00:32:54;;;;;;;5.65;4.10;;;;;;;14.49;67.97;93887.41;5110429;28;20027;-69
2021/06/12 00:35:20;;;;;;;8.00;3.95;;;;;;;14.44;67.78;93893.78;5110630;28;20406;-69
2021/06/12 00:37:46;;;;;;;6.00;3.55;;;;;;;14.37;67.39;93898.94;5111403;28;20015;-69
2021/06/12 00:40:15;;;;;;;5.32;3.75;;;;;;;14.21;67.95;93894.25;5111587;28;20023;-69
2021/06/12 00:42:41;;;;;;;7.72;3.83;;;;;;;14.17;67.99;93897.94;5111770;27;20046;-69
2021/06/12 00:45:29;;;;;;;6.32;3.22;;;;;;;14.19;68.16;93893.03;5110254;28;20024;-69
2021/06/12 00:47:55;;;;;;;5.95;3.50;;;;;;;14.17;68.38;93895.25;5111180;28;20483;-69
2021/06/12 00:50:23;;;;;;;5.50;3.20;;;;;;;14.20;68.47;93897.25;5111318;28;20034;-69
2021/06/12 00:52:48;;;;;;;5.55;3.28;;;;;;;14.19;68.30;93888.44;5111134;28;20031;-69
2021/06/12 00:55:15;;;;;;;4.25;2.95;;;;;;;14.25;68.42;93892.47;5111645;28;20023;-69
2021/06/12 00:57:42;;;;;;;4.97;3.05;;;;;;;14.24;68.25;93890.88;5111461;28;20058;-69
2021/06/12 01:00:15;;;;;;;11.40;3.20;;;;;;;14.20;68.43;93899.94;5111315;28;20036;-69
2021/06/12 01:02:41;;;;;;;14.77;3.05;;;;;;;14.18;68.39;93894.13;5111384;28;20924;-69
2021/06/12 01:05:09;;;;;;;5.97;3.67;;;;;;;14.19;68.49;93898.38;5109711;28;20028;-69
2021/06/12 01:07:34;;;;;;;7.22;3.60;;;;;;;14.20;68.38;93889.22;5111407;28;20076;-70
2021/06/12 01:10:00;;;;;;;5.15;3.53;;;;;;;14.19;68.30;93896.47;5101137;28;20028;-69
2021/06/12 01:12:38;;;;;;;7.68;4.43;;;;;;;14.19;67.79;93896.47;5090635;28;20414;-69
2021/06/12 01:15:06;;;;;;;5.28;3.60;;;;;;;14.15;67.94;93898.25;5090529;28;20024;-69
2021/06/12 01:17:42;;;;;;;5.72;3.53;;;;;;;14.16;68.39;93909.75;5090595;28;20038;-69
2021/06/12 01:20:41;;;;;;;5.85;3.38;;;;;;;14.17;68.31;93904.06;5089228;28;20028;-69
2021/06/12 01:23:10;;;;;;;5.85;3.78;;;;;;;14.17;68.28;93905.97;5070072;28;20499;-69
2021/06/12 01:25:57;;;;;;;6.35;3.78;;;;;;;14.17;68.24;93903.31;5090466;28;20031;-69
2021/06/12 01:28:50;;;;;;;5.72;3.40;;;;;;;14.16;68.47;93907.09;5086206;28;20043;-69
2021/06/12 01:31:18;;;;;;;4.75;3.50;;;;;;;14.17;68.60;93905.97;5090477;28;20118;-69
2021/06/12 01:33:46;;;;;;;5.93;3.42;;;;;;;14.17;68.38;93906.75;5090535;28;20021;-69
2021/06/12 01:36:13;;;;;;;4.95;3.42;;;;;;;14.17;68.48;93901.41;5090134;28;20027;-69
2021/06/12 01:38:44;;;;;;;7.72;4.07;;;;;;;14.17;68.68;93909.44;5089147;28;20028;-69
2021/06/12 01:41:14;;;;;;;9.43;4.20;;;;;;;14.19;68.59;93917.94;5091299;28;20467;-69
2021/06/12 01:43:42;;;;;;;5.53;3.72;;;;;;;14.16;68.58;93910.53;5110996;28;20153;-69
2021/06/12 01:46:12;;;;;;;7.70;4.13;;;;;;;14.17;68.60;93914.78;5110344;28;20061;-69
2021/06/12 01:48:45;;;;;;;5.78;3.70;;;;;;;14.17;68.31;93911.34;5109410;28;20486;-69
2021/06/12 01:51:12;;;;;;;6.53;3.30;;;;;;;14.20;68.81;93916.03;5110223;28;20039;-70
2021/06/12 01:53:42;;;;;;;5.97;3.42;;;;;;;14.16;69.03;93918.56;5110482;28;20027;-70
2021/06/12 01:56:10;;;;;;;6.40;4.28;;;;;;;14.16;68.74;93915.91;5108915;28;20031;-70
2021/06/12 01:58:39;;;;;;;6.88;3.60;;;;;;;14.20;68.74;93922.16;5109055;28;20026;-69
2021/06/12 02:01:08;;;;;;;7.10;3.83;;;;;;;14.23;68.45;93915.38;5110438;28;20027;-69
2021/06/12 02:03:34;;;;;;;6.90;4.15;;;;;;;14.24;68.42;93909.66;5108925;28;20040;-71
2021/06/12 02:06:01;;;;;;;5.75;4.00;;;;;;;14.28;68.55;93922.41;5110461;28;20031;-70
2021/06/12 02:08:27;;;;;;;7.40;4.22;;;;;;;14.31;68.53;93919.84;5089477;28;20406;-72
2021/06/12 02:10:54;;;;;;;6.03;4.45;;;;;;;14.28;68.74;93917.03;5100774;28;20048;-71
2021/06/12 02:13:23;;;;;;;7.97;4.35;;;;;;;14.25;69.20;93918.50;5107285;28;20067;-72
2021/06/12 02:15:56;;;;;;;5.15;3.97;;;;;;;14.27;68.67;93915.47;5109697;28;20031;-72
2021/06/12 02:18:24;;;;;;;7.55;4.90;;;;;;;14.27;68.72;93920.81;5109732;28;20110;-72
2021/06/12 02:20:51;;;;;;;6.75;3.92;;;;;;;14.27;68.75;93912.78;5103518;28;20066;-71
2021/06/12 02:23:17;;;;;;;6.45;4.10;;;;;;;14.30;68.99;93917.47;5089272;28;20066;-72
2021/06/12 02:25:46;;;;;;;9.20;4.28;;;;;;;14.30;69.51;93920.16;5089478;28;20031;-72
2021/06/12 02:28:13;;;;;;;6.85;3.92;;;;;;;14.28;69.28;93922.41;5088105;28;20024;-72
2021/06/12 02:30:48;;;;;;;6.25;4.40;;;;;;;14.17;68.76;93930.88;5102040;28;20024;-72
2021/06/12 02:33:16;;;;;;;8.02;3.78;;;;;;;14.20;68.94;93926.75;5096318;28;20065;-72
2021/06/12 02:35:42;;;;;;;11.13;4.68;;;;;;;14.24;69.44;93923.06;5087714;28;20070;-71
2021/06/12 02:38:07;;;;;;;6.68;4.38;;;;;;;14.29;69.29;93923.94;5089681;28;20386;-71
2021/06/12 02:40:33;;;;;;;5.60;3.95;;;;;;;14.29;69.43;93921.25;5090878;28;20020;-72
2021/06/12 02:42:58;;;;;;;6.97;4.80;;;;;;;14.29;69.56;93926.63;5112660;28;20035;-72
2021/06/12 02:45:25;;;;;;;7.50;4.70;;;;;;;14.30;69.36;93925.53;5111661;28;20019;-72
2021/06/12 02:47:53;;;;;;;6.53;4.20;;;;;;;14.19;68.86;93920.59;5108070;28;20453;-72
2021/06/12 02:50:24;;;;;;;9.23;3.80;;;;;;;14.11;68.59;93929.53;5093200;28;20020;-72
2021/06/12 02:52:52;;;;;;;6.72;3.47;;;;;;;14.06;67.54;93929.72;5093162;28;20073;-72
2021/06/12 02:55:18;;;;;;;7.93;3.58;;;;;;;14.02;67.55;93931.50;5093025;28;20062;-72
2021/06/12 02:57:46;;;;;;;4.97;3.05;;;;;;;13.99;67.30;93929.50;5091378;28;20020;-72
2021/06/12 03:00:13;;;;;;;5.07;3.17;;;;;;;14.02;67.14;93928.84;5108164;28;20470;-72
2021/06/12 03:02:42;;;;;;;4.15;2.78;;;;;;;14.05;66.52;93928.19;5113262;28;20398;-72
2021/06/12 03:05:14;;;;;;;5.68;2.83;;;;;;;14.08;66.32;93927.50;5104952;28;20474;-73
2021/06/12 03:07:40;;;;;;;3.67;2.63;;;;;;;14.10;65.90;93919.91;5113155;28;20549;-72
2021/06/12 03:10:07;;;;;;;3.33;2.55;;;;;;;14.14;66.24;93917.34;5102980;28;20046;-72
2021/06/12 03:12:33;;;;;;;7.30;3.00;;;;;;;14.23;65.98;93924.19;5110113;28;20595;-72
2021/06/12 03:15:00;;;;;;;6.28;2.60;;;;;;;14.27;66.02;93920.81;5113008;28;20050;-72
2021/06/12 03:17:27;;;;;;;3.25;2.33;;;;;;;14.32;64.94;93923.28;5112971;28;20027;-71
2021/06/12 03:19:56;;;;;;;8.30;3.05;;;;;;;14.33;66.02;93920.28;5111727;28;20039;-71
2021/06/12 03:22:22;;;;;;;6.88;3.00;;;;;;;14.35;65.42;93934.13;5112973;28;20055;-71
2021/06/12 03:24:48;;;;;;;6.80;3.15;;;;;;;14.33;65.53;93940.94;5111188;28;20049;-71
2021/06/12 03:27:14;;;;;;;4.43;2.58;;;;;;;14.31;65.30;93940.47;5112681;28;20110;-72
2021/06/12 03:29:40;;;;;;;8.57;2.60;;;;;;;14.35;65.16;93944.88;5112587;28;20035;-72
2021/06/12 03:32:06;;;;;;;4.95;2.83;;;;;;;14.35;64.81;93938.69;5113063;28;20170;-72
2021/06/12 03:34:32;;;;;;;5.40;3.20;;;;;;;14.34;65.22;93942.50;5112866;28;20038;-72
2021/06/12 03:36:59;;;;;;;4.95;2.70;;;;;;;14.36;64.90;93937.59;5112615;28;20023;-72
2021/06/12 03:39:25;;;;;;;3.30;2.35;;;;;;;14.39;64.49;93943.06;5112494;28;20024;-72
2021/06/12 03:41:52;;;;;;;5.05;3.00;;;;;;;14.44;64.84;93942.06;5110923;28;20077;-72
2021/06/12 03:44:19;;;;;;;5.78;3.03;;;;;;;14.43;64.77;93941.28;5112516;28;20020;-72
2021/06/12 03:46:47;;;;;;;4.80;3.17;;;;;;;14.54;64.15;93941.63;5122131;27;20558;-72
2021/06/12 03:49:14;;;;;;;3.50;2.70;;;;;;;14.56;64.05;93947.47;5096297;28;20469;-72
2021/06/12 03:51:41;;;;;;;4.10;3.22;;;;;;;14.55;63.39;93937.84;5110374;28;20482;-72
2021/06/12 03:54:08;;;;;;;3.95;2.58;;;;;;;14.54;64.10;93946.97;5100720;27;20097;-72
2021/06/12 03:56:35;;;;;;;8.55;3.03;;;;;;;14.56;63.46;93942.09;5092295;28;20015;-72
2021/06/12 03:59:02;;;;;;;4.35;3.03;;;;;;;14.60;63.78;93939.53;5091791;28;20103;-72
2021/06/12 04:01:28;;;;;;;5.20;3.05;;;;;;;14.58;63.22;93947.13;5090566;28;20073;-71
2021/06/12 04:03:53;;;;;;;9.05;2.63;;;;;;;14.57;63.72;93946.34;5091697;28;20023;-72
2021/06/12 04:06:20;;;;;;;5.65;2.78;;;;;;;14.54;63.75;93941.63;5091431;28;20016;-72
2021/06/12 04:08:47;;;;;;;3.85;2.85;;;;;;;14.61;63.67;93936.53;5097797;28;20063;-72
2021/06/12 04:11:13;;;;;;;3.80;2.53;;;;;;;14.68;63.78;93943.22;5110299;28;20066;-71
2021/06/12 04:13:38;;;;;;;4.10;2.92;;;;;;;14.73;63.78;93941.06;5111981;28;20028;-72
2021/06/12 04:16:04;;;;;;;6.28;3.17;;;;;;;14.82;63.31;93954.38;5111728;28;20026;-71
2021/06/12 04:18:30;;;;;;;5.13;3.42;;;;;;;14.87;63.83;93953.38;5111848;28;20095;-72
2021/06/12 04:20:56;;;;;;;4.50;3.05;;;;;;;14.89;63.39;93951.91;5110879;28;20055;-71
2021/06/12 04:23:22;;;;;;;5.35;3.03;;;;;;;14.90;63.54;93948.13;5089856;28;20028;-72
2021/06/12 04:25:47;;;;;;;4.72;3.22;;;;;;;14.92;64.12;93948.56;5089925;28;20468;-72
2021/06/12 04:28:12;;;;;;;6.05;3.50;;;;;;;14.99;64.01;93950.66;5091037;28;20035;-71
2021/06/12 04:30:38;;;;;;;5.75;3.33;;;;;;;15.04;63.71;93953.91;5091380;28;20019;-72
2021/06/12 04:33:04;;;;;;;11.50;3.63;;;;;;;15.16;63.55;93947.75;5089775;28;20032;-72
2021/06/12 04:35:30;;;;;;;5.43;3.47;;;;;;;15.23;63.24;93955.22;5095005;28;20028;-72
2021/06/12 04:37:59;;;;;;;9.35;3.75;;;;;;;15.26;63.34;93954.50;5111489;28;20080;-71
2021/06/12 04:40:27;;;;;;;9.90;3.60;;;;;;;15.37;63.67;93961.00;5098253;28;20107;-72
2021/06/12 04:42:52;;;;;;;7.18;3.85;;;;;;;15.35;63.28;93960.53;5089686;28;20036;-71
2021/06/12 04:45:18;;;;;;;10.18;3.35;;;;;;;15.38;63.02;93970.59;5090864;28;20089;-72
2021/06/12 04:47:43;;;;;;;9.68;3.38;;;;;;;15.27;61.69;93966.84;5090564;28;20159;-72
2021/06/12 04:50:12;;;;;;;9.88;3.70;;;;;;;15.28;62.14;93965.69;5090659;28;20035;-72
2021/06/12 04:52:38;;;;;;;6.00;3.38;;;;;;;15.25;61.94;93971.75;5092150;28;20046;-73
2021/06/12 04:55:06;;;;;;;11.75;3.63;;;;;;;15.38;61.87;93977.88;5105812;28;20394;-72
2021/06/12 04:57:31;;;;;;;7.32;3.63;;;;;;;15.34;61.48;93971.63;5109620;28;20103;-72
2021/06/12 04:59:57;;;;;;;8.43;4.40;;;;;;;15.29;61.48;93977.25;5093140;28;20067;-72
2021/06/12 05:02:22;;;;;;;11.65;3.70;;;;;;;15.29;61.51;93978.03;5090638;28;20024;-71
2021/06/12 05:04:47;;;;;;;8.93;3.80;;;;;;;15.29;61.79;93987.97;5089424;28;20035;-71
2021/06/12 05:07:13;;;;;;;5.78;3.55;;;;;;;15.42;61.64;93984.91;5090484;28;20399;-72
2021/06/12 05:09:38;;;;;;;6.57;3.80;;;;;;;15.55;61.70;93982.19;5103981;28;20106;-72
2021/06/12 05:12:04;;;;;;;10.63;3.70;;;;;;;15.65;61.77;93987.06;5098194;28;20488;-72
2021/06/12 05:14:29;;;;;;;5.07;3.80;;;;;;;15.62;61.88;93987.75;5110713;28;20117;-72
2021/06/12 05:16:55;;;;;;;8.57;4.05;;;;;;;15.69;62.04;93984.47;5110697;28;20042;-72
2021/06/12 05:19:20;;;;;;;6.32;3.95;;;;;;;15.79;62.02;93989.41;5096077;28;20137;-72
2021/06/12 05:21:46;;;;;;;7.93;3.78;;;;;;;15.73;62.10;93983.47;5088889;28;20028;-72
2021/06/12 05:24:12;;;;;;;6.68;3.75;;;;;;;15.69;60.55;93998.69;5090138;28;20030;-71
2021/06/12 05:26:40;;;;;;;8.07;4.00;;;;;;;15.63;61.13;93995.50;5090004;28;20066;-71
2021/06/12 05:29:05;;;;;;;8.48;4.32;;;;;;;15.61;60.24;93997.75;5090329;28;20510;-72
2021/06/12 05:31:32;;;;;;;5.20;3.45;;;;;;;15.60;60.07;93990.00;5097148;28;20020;-71
2021/06/12 05:33:58;;;;;;;9.90;4.05;;;;;;;15.54;59.53;94004.81;5088540;28;20040;-71
2021/06/12 05:36:23;;;;;;;7.50;3.92;;;;;;;15.44;60.43;93998.78;5099973;28;20030;-72
2021/06/12 05:38:49;;;;;;;7.78;3.50;;;;;;;15.53;60.71;93998.66;5096987;28;20101;-71
2021/06/12 05:41:14;;;;;;;8.55;4.47;;;;;;;15.65;60.57;94004.00;5090084;28;20031;-72
2021/06/12 05:43:40;;;;;;;5.82;3.58;;;;;;;15.67;60.83;94006.31;5089732;28;20020;-72
2021/06/12 05:46:05;;;;;;;11.30;4.13;;;;;;;15.72;60.03;94002.63;5089640;28;20028;-73
2021/06/12 05:48:30;;;;;;;6.05;3.97;;;;;;;15.83;59.68;94009.91;5089837;28;20024;-72
2021/06/12 05:50:56;;;;;;;7.32;4.25;;;;;;;15.93;60.53;94002.44;5088413;28;20043;-72
2021/06/12 05:53:21;;;;;;;5.60;3.70;;;;;;;15.93;58.90;94003.22;5089820;28;20020;-72
2021/06/12 05:55:47;;;;;;;13.27;4.68;;;;;;;15.93;60.07;94000.53;5089801;28;20102;-69
2021/06/12 05:58:12;;;;;;;12.48;4.30;;;;;;;15.89;59.27;93998.88;5089609;28;20031;-69
2021/06/12 06:00:38;;;;;;;6.10;4.05;;;;;;;15.99;60.74;94003.75;5088598;28;20054;-69
2021/06/12 06:03:04;;;;;;;6.80;4.38;;;;;;;16.09;60.12;93995.19;5089631;28;20028;-70
2021/06/12 06:05:29;;;;;;;10.48;4.50;;;;;;;16.16;58.44;93997.28;5106189;28;20051;-70
2021/06/12 06:07:55;;;;;;;4.93;3.67;;;;;;;15.98;59.03;94012.97;5109910;28;20073;-71
2021/06/12 06:10:21;;;;;;;7.38;3.60;;;;;;;15.95;59.12;93994.81;5109810;28;20044;-70
2021/06/12 06:12:47;;;;;;;6.22;4.00;;;;;;;16.12;59.73;93993.72;5109869;28;20032;-70
2021/06/12 06:15:13;;;;;;;6.45;4.05;;;;;;;16.17;58.68;93998.88;5110809;28;20133;-70
2021/06/12 06:17:40;;;;;;;10.35;3.92;;;;;;;16.30;59.67;94013.00;5095850;28;20066;-71
2021/06/12 06:20:06;;;;;;;8.45;4.28;;;;;;;16.38;58.63;93999.41;5093704;28;20032;-71
2021/06/12 06:22:32;;;;;;;6.35;3.60;;;;;;;16.45;58.26;93990.75;5093612;28;20024;-70
2021/06/12 06:24:58;;;;;;;6.50;3.85;;;;;;;16.67;58.72;93997.44;5093816;28;20032;-70
2021/06/12 06:27:24;;;;;;;5.32;4.25;;;;;;;16.79;58.21;93999.22;5092066;28;20036;-70
2021/06/12 06:29:49;;;;;;;6.18;3.70;;;;;;;16.68;57.03;93993.59;5093436;28;20184;-70
2021/06/12 06:32:14;;;;;;;6.32;3.67;;;;;;;16.53;58.03;93991.72;5093508;28;20111;-70
2021/06/12 06:34:40;;;;;;;8.45;4.13;;;;;;;16.67;58.09;93991.25;5093405;28;20027;-71
2021/06/12 06:37:05;;;;;;;6.88;4.75;;;;;;;16.74;57.86;93986.06;5092138;28;20475;-70
2021/06/12 06:39:31;;;;;;;7.95;4.05;;;;;;;16.90;58.03;93994.91;5091835;28;20028;-70
2021/06/12 06:41:57;;;;;;;7.18;3.80;;;;;;;17.01;56.32;93995.94;5091737;28;20024;-70
2021/06/12 06:44:22;;;;;;;6.07;4.32;;;;;;;17.05;57.44;93985.25;5093157;28;20050;-69
2021/06/12 06:46:47;;;;;;;5.95;3.90;;;;;;;17.12;56.66;93981.94;5093201;28;20035;-69
2021/06/12 06:49:13;;;;;;;8.57;3.65;;;;;;;17.18;57.47;93975.16;5091883;28;20035;-69
2021/06/12 06:51:38;;;;;;;6.05;3.95;;;;;;;17.37;56.54;93977.88;5093172;28;20395;-69
2021/06/12 06:54:04;;;;;;;10.18;4.30;;;;;;;17.35;56.01;93987.44;5093342;28;20103;-70
2021/06/12 06:56:29;;;;;;;5.43;4.35;;;;;;;17.37;56.07;93985.94;5091674;28;20027;-70
2021/06/12 06:58:54;;;;;;;8.85;4.43;;;;;;;17.52;56.27;93988.94;5093018;28;20107;-69
2021/06/12 07:01:20;;;;;;;8.35;4.05;;;;;;;17.47;55.01;93981.94;5091590;28;20047;-69
2021/06/12 07:03:45;;;;;;;7.38;4.05;;;;;;;17.38;55.21;93992.91;5090104;28;20055;-69
2021/06/12 07:06:10;;;;;;;7.72;4.65;;;;;;;17.44;55.68;93986.13;5092653;28;20103;-69
2021/06/12 07:08:36;;;;;;;7.72;3.75;;;;;;;17.56;55.25;93993.25;5091629;28;20031;-72
2021/06/12 07:11:01;;;;;;;6.90;4.22;;;;;;;17.70;56.50;93992.78;5091287;28;20055;-71
2021/06/12 07:13:27;;;;;;;5.57;3.55;;;;;;;17.70;56.67;93986.63;5092540;28;20110;-70
2021/06/12 07:15:52;;;;;;;12.85;4.38;;;;;;;17.68;55.09;93984.25;5092879;28;20127;-68
2021/06/12 07:18:18;;;;;;;5.68;4.10;;;;;;;17.74;55.80;93977.47;5092523;28;20394;-70
2021/06/12 07:20:46;;;;;;;9.57;4.13;;;;;;;17.85;55.16;93980.41;5091145;28;20468;-70
2021/06/12 07:23:15;;;;;;;4.95;3.22;;;;;;;17.97;54.13;93982.16;5090970;28;20498;-70
2021/06/12 07:25:40;;;;;;;15.48;4.65;;;;;;;18.04;55.17;93985.00;5091043;28;20024;-69
2021/06/12 07:28:05;;;;;;;6.43;3.80;;;;;;;18.10;55.84;93977.41;5091431;28;20027;-70
2021/06/12 07:30:37;;;;;;;8.38;4.15;;;;;;;18.08;54.13;93985.06;5090954;28;20028;-72
2021/06/12 07:33:03;;;;;;;8.10;4.25;;;;;;;18.11;53.50;93987.81;5092384;28;20024;-71
2021/06/12 07:35:28;;;;;;;11.30;3.88;;;;;;;17.98;53.80;93981.03;5092070;28;20035;-72
2021/06/12 07:37:53;;;;;;;7.53;4.18;;;;;;;18.06;54.40;93971.94;5092123;28;20514;-69
2021/06/12 07:40:19;;;;;;;5.78;3.90;;;;;;;18.16;53.71;93971.34;5092110;28;20110;-70
2021/06/12 07:42:44;;;;;;;9.38;4.45;;;;;;;18.20;53.45;93966.78;5091973;28;20572;-70
2021/06/12 07:45:10;;;;;;;8.23;4.47;;;;;;;18.27;52.33;93958.03;5091974;28;20027;-71
2021/06/12 07:47:35;;;;;;;8.38;4.90;;;;;;;18.47;53.29;93961.47;5091923;28;20127;-70
2021/06/12 07:50:01;;;;;;;6.78;5.30;;;;;;;18.54;53.15;93961.59;5091710;28;20494;-71
2021/06/12 07:52:26;;;;;;;9.57;4.18;;;;;;;18.56;51.33;93961.22;5091539;28;20031;-71
2021/06/12 07:54:51;;;;;;;6.05;4.22;;;;;;;18.52;52.11;93966.56;5092146;28;20099;-71
2021/06/12 07:57:17;;;;;;;4.78;3.85;;;;;;;18.49;51.36;93964.59;5091715;28;20023;-71
2021/06/12 07:59:42;;;;;;;5.63;4.20;;;;;;;18.43;53.22;93963.31;5091463;28;20103;-72
2021/06/12 08:02:08;;;;;;;15.80;4.35;;;;;;;18.62;53.20;93971.38;5091939;28;20081;-73
2021/06/12 08:04:33;;;;;;;9.60;3.92;;;;;;;18.79;52.14;93969.34;5091603;28;20483;-71
2021/06/12 08:06:59;;;;;;;12.02;4.32;;;;;;;18.75;52.16;93971.19;5105144;28;20051;-72
2021/06/12 08:09:24;;;;;;;8.32;4.47;;;;;;;18.76;52.96;93970.78;5110690;28;20035;-70
2021/06/12 08:11:50;;;;;;;5.97;3.50;;;;;;;18.71;51.85;93973.81;5090154;28;20076;-70
2021/06/12 08:14:16;;;;;;;6.25;3.55;;;;;;;18.74;52.14;93966.91;5091443;28;20503;-71
2021/06/12 08:16:41;;;;;;;5.60;3.83;;;;;;;18.87;52.11;93954.81;5091106;28;20028;-71
2021/06/12 08:19:06;;;;;;;5.65;3.05;;;;;;;19.04;51.82;93959.66;5091662;28;20031;-72
2021/06/12 08:21:32;;;;;;;15.63;4.20;;;;;;;19.14;51.51;93960.22;5091115;28;20058;-72
2021/06/12 08:23:57;;;;;;;7.03;3.83;;;;;;;19.37;51.24;93957.41;5089759;28;20051;-69
2021/06/12 08:26:24;;;;;;;6.32;4.05;;;;;;;19.53;49.85;93947.19;5091290;28;20403;-69
2021/06/12 08:28:50;;;;;;;4.75;3.63;;;;;;;19.64;49.08;93947.31;5091222;28;20024;-71
2021/06/12 08:31:15;;;;;;;5.93;3.47;;;;;;;19.75;50.22;93956.38;5091216;28;20031;-69
2021/06/12 08:33:41;;;;;;;6.18;3.17;;;;;;;19.75;50.77;93953.69;5108377;28;20033;-72
2021/06/12 08:36:06;;;;;;;9.05;3.75;;;;;;;19.89;48.76;93950.34;5111631;28;20019;-68
2021/06/12 08:38:32;;;;;;;5.90;3.55;;;;;;;19.74;48.18;93944.03;5110023;28;20027;-71
2021/06/12 08:40:57;;;;;;;4.88;4.07;;;;;;;19.63;46.97;93956.59;5111172;28;20039;-71
2021/06/12 08:43:26;;;;;;;5.63;3.35;;;;;;;19.62;47.71;93955.03;5111361;28;20019;-69
2021/06/12 08:45:53;;;;;;;6.03;3.25;;;;;;;19.79;46.29;93951.78;5111047;28;20023;-71
2021/06/12 08:48:20;;;;;;;6.20;3.25;;;;;;;19.86;45.42;93942.19;5111409;28;20055;-71
2021/06/12 08:50:45;;;;;;;7.47;3.30;;;;;;;20.01;46.03;93947.41;5109814;28;20019;-72
2021/06/12 08:53:11;;;;;;;11.38;2.70;;;;;;;20.13;43.34;93945.56;5089191;28;20100;-71
2021/06/12 08:55:37;;;;;;;5.35;3.13;;;;;;;19.95;44.58;93948.09;5089571;28;20107;-71
2021/06/12 08:58:02;;;;;;;11.18;3.22;;;;;;;19.91;45.41;93947.28;5090640;28;20513;-72
2021/06/12 09:00:28;;;;;;;3.85;2.80;;;;;;;20.02;45.52;93945.47;5090623;28;20103;-71
2021/06/12 09:03:13;;;;;;;5.15;3.33;;;;;;;20.16;45.41;93934.78;5090411;28;20410;-72
2021/06/12 09:05:51;;;;;;;15.63;3.83;;;;;;;20.41;46.21;93931.53;5090473;28;20059;-72
2021/06/12 09:08:19;;;;;;;12.32;3.10;;;;;;;20.66;44.46;93930.97;5090191;28;20031;-71
2021/06/12 09:11:06;;;;;;;6.03;2.67;;;;;;;20.80;44.09;93922.97;5090126;28;20052;-74
2021/06/12 09:13:46;;;;;;;4.80;2.75;;;;;;;20.57;43.08;93929.34;5105115;28;20039;-73
2021/06/12 09:16:38;;;;;;;5.75;2.55;;;;;;;20.47;43.49;93927.31;5088588;28;20050;-71
2021/06/12 09:19:18;;;;;;;5.50;2.97;;;;;;;20.67;42.94;93927.13;5088808;28;20114;-72
2021/06/12 09:21:55;;;;;;;7.32;2.78;;;;;;;20.81;43.09;93917.19;5090114;28;20036;-72
2021/06/12 09:24:25;;;;;;;4.00;2.90;;;;;;;21.03;42.20;93920.81;5107845;28;20471;-75
2021/06/12 09:26:57;;;;;;;3.83;2.50;;;;;;;20.96;41.11;93920.75;5109072;28;20084;-73
2021/06/12 09:29:33;;;;;;;8.48;2.70;;;;;;;20.77;42.99;93929.16;5110581;28;20024;-75
2021/06/12 09:31:58;;;;;;;4.93;2.75;;;;;;;20.78;42.88;93931.47;5109052;28;20114;-73
2021/06/12 09:34:25;;;;;;;5.68;2.65;;;;;;;20.71;44.02;93926.00;5094084;28;20051;-75
2021/06/12 09:36:51;;;;;;;6.65;2.88;;;;;;;20.61;44.15;93924.75;5092724;28;20016;-75
2021/06/12 09:39:24;;;;;;;4.70;2.60;;;;;;;20.76;43.79;93927.56;5099848;28;20020;-73
2021/06/12 09:41:50;;;;;;;5.05;2.85;;;;;;;20.78;44.64;93917.94;5087392;28;20030;-74
2021/06/12 09:44:40;;;;;;;3.67;3.00;;;;;;;20.78;45.94;93919.84;5088443;28;20038;-72
2021/06/12 09:47:20;;;;;;;3.83;2.60;;;;;;;20.92;45.56;93911.06;5089900;28;20205;-73
2021/06/12 09:49:46;;;;;;;5.07;2.83;;;;;;;20.64;43.26;93909.72;5101859;28;20441;-73
2021/06/12 09:52:14;;;;;;;3.35;2.38;;;;;;;20.75;43.26;93904.38;5125853;27;20027;-73
2021/06/12 09:54:46;;;;;;;3.45;2.22;;;;;;;20.93;43.44;93902.56;5108597;28;20039;-72
2021/06/12 09:57:17;;;;;;;5.05;2.25;;;;;;;21.14;39.81;93888.34;5106719;28;20103;-73
2021/06/12 09:59:48;;;;;;;6.20;2.93;;;;;;;21.07;41.82;93901.09;5110013;28;20055;-74
2021/06/12 10:02:35;;;;;;;6.22;2.47;;;;;;;21.04;40.52;93906.13;5108559;28;20023;-73
2021/06/12 10:05:01;;;;;;;3.60;2.20;;;;;;;20.88;40.87;93897.47;5107576;28;20066;-72
2021/06/12 10:07:27;;;;;;;5.45;2.55;;;;;;;20.94;41.08;93893.25;5105252;28;20027;-74
2021/06/12 10:09:53;;;;;;;3.78;2.45;;;;;;;21.12;39.79;93881.75;5109610;28;20444;-72
2021/06/12 10:12:21;;;;;;;10.18;2.60;;;;;;;21.32;41.78;93880.31;5108298;28;20444;-73
2021/06/12 10:14:51;;;;;;;4.38;2.30;;;;;;;21.56;41.04;93883.53;5091673;28;20044;-72
2021/06/12 10:17:17;;;;;;;3.38;1.90;;;;;;;21.50;41.96;93885.06;5101437;28;20103;-73
2021/06/12 10:19:43;;;;;;;4.72;2.30;;;;;;;21.35;41.25;93893.09;5092293;28;20052;-72
2021/06/12 10:22:14;;;;;;;3.63;2.20;;;;;;;21.34;39.66;93894.25;5087899;28;20032;-72
2021/06/12 10:24:40;;;;;;;5.78;2.47;;;;;;;21.39;40.15;93885.75;5089631;28;20032;-72
2021/06/12 10:27:07;;;;;;;4.30;2.42;;;;;;;21.54;38.59;93873.06;5089125;28;20043;-72
2021/06/12 10:29:33;;;;;;;5.75;2.17;;;;;;;21.73;38.99;93871.19;5089350;28;20024;-72
2021/06/12 10:32:00;;;;;;;6.53;2.65;;;;;;;21.76;40.08;93892.13;5088902;28;20024;-72
2021/06/12 10:34:28;;;;;;;3.25;2.30;;;;;;;21.69;39.47;93882.00;5089325;28;20490;-71
2021/06/12 10:36:58;;;;;;;4.63;2.30;;;;;;;21.79;40.36;93883.97;5087618;28;20028;-71
2021/06/12 10:39:34;;;;;;;4.32;2.10;;;;;;;21.71;38.55;93879.69;5087705;28;20054;-73
2021/06/12 10:42:15;;;;;;;7.30;2.25;;;;;;;21.89;37.57;93876.25;5089067;28;20459;-72
2021/06/12 10:44:43;;;;;;;3.75;2.20;;;;;;;21.86;38.87;93866.16;5089292;28;20474;-72
2021/06/12 10:47:08;;;;;;;3.30;2.13;;;;;;;21.81;38.75;93876.22;5088920;28;20111;-74
2021/06/12 10:49:34;;;;;;;6.40;2.17;;;;;;;21.95;39.06;93872.00;5089234;28;20522;-75
2021/06/12 10:52:02;;;;;;;2.85;1.83;;;;;;;21.93;37.99;93864.25;5088981;28;20069;-72
2021/06/12 10:54:36;;;;;;;5.78;2.17;;;;;;;22.02;38.59;93866.56;5089025;28;20024;-75
2021/06/12 10:57:13;;;;;;;4.13;2.10;;;;;;;22.09;38.71;93853.03;5088734;28;20024;-73
2021/06/12 10:59:44;;;;;;;9.30;2.28;;;;;;;22.06;38.79;93864.63;5089304;28;20475;-74
2021/06/12 11:05:02;;;;;;;3.83;2.47;;;;;;;22.24;39.27;93851.13;5092873;28;20058;-73
2021/06/12 11:07:38;;;;;;;13.57;2.13;;;;;;;22.49;38.92;93859.28;5093586;28;20032;-73
2021/06/12 11:10:13;;;;;;;5.95;2.13;;;;;;;22.78;37.87;93853.81;5092622;28;20032;-72
2021/06/12 11:12:40;;;;;;;5.57;2.72;;;;;;;22.96;37.80;93853.75;5092741;28;20095;-72
2021/06/12 11:15:09;;;;;;;7.88;2.80;;;;;;;23.06;40.23;93853.00;5092892;28;20480;-72
2021/06/12 11:17:35;;;;;;;4.93;2.90;;;;;;;23.15;42.53;93858.81;5104341;28;20529;-73
2021/06/12 11:20:01;;;;;;;7.70;3.15;;;;;;;23.13;43.34;93855.69;5097974;28;20055;-72
2021/06/12 11:22:36;;;;;;;5.28;3.28;;;;;;;23.20;42.51;93850.25;5091928;28;20024;-73
2021/06/12 11:25:08;;;;;;;9.88;3.00;;;;;;;23.33;41.39;93850.59;5091595;28;20036;-72
2021/06/12 11:27:40;;;;;;;11.38;3.45;;;;;;;23.40;43.44;93849.78;5098872;28;20024;-72
2021/06/12 11:30:13;;;;;;;16.38;3.67;;;;;;;23.33;45.48;93857.97;5113112;28;20106;-72
2021/06/12 11:32:40;;;;;;;11.18;3.15;;;;;;;23.19;45.19;93856.84;5112654;28;20034;-73
2021/06/12 11:35:06;;;;;;;12.82;2.90;;;;;;;23.09;45.26;93857.66;5088618;28;20028;-72
2021/06/12 11:37:32;;;;;;;14.85;3.95;;;;;;;22.99;47.29;93853.75;5092059;28;20480;-73